Etusivu
METAR-TAF:

METAR-TAF

Lentoasemat :

Dakar, Senegal

Leveyspiiri: 14-44N, Pituuspiiri: 017-30W, korkeus merenpinnasta: 27 m

Tämänhetkinen sää

Tämä raportti tehtiin 1 tunti ja 6 minuuttia sitten, kello 21.00 UTC
tyyntä
Lämpötila 28°C
Kosteus 74%
Ilmanpaine 1011 hPa
Näkyvyys: 8000 m
Hajanaisia pilviä 1300 ft:n korkeudessa

METAR: GOOY 182100Z 00000KT 8000 SCT013 28/23 Q1011

Aika: 22:06 (22:06 UTC)

Sääennuste

Tämä raportti tehtiin 4 tuntia ja 36 minuuttia sitten, kello 17.30 UTC
Ennuste voimassa 18. päivästä klo 18 UTC - 19. päivään klo 24 UTC
Tuuli 8 kn pohjoisen/luoteesta
Näkyvyys 10 km tai enemmän
Hajanaisia pilviä 1300 ft:n korkeudessa
Todennäköisyys 40% :
Ajoittain
14. päivästä klo 20 UTC - 14. päivään klo 24 UTC
Näkyvyys: 4000 m
Hajonneita pilviä 1000 ft:n korkeudessa
Muutamia pilviä 3000 ft:n korkeudessa, Cumulonimbus.
ukkosmyrsky, sadetta

TAF: GOOY 181730Z 1818/1924 34008KT 9999 SCT013 PROB40 TEMPO 1420/1424 4000 TSRA BKN010 FEW030CB

Säähavainnot ja -ennusteet yli 4000 lentoasemalta (METAR- ja TAF-raportit).

Käytössä olevat sääasemat on merkitty karttaan keltaisilla ja punaisilla pisteillä.

Aseta hiiri pisteen päälle nähdäksesi sääaseman nimen.

Klikkaa sitten nähdäksesi säähavainnot ja -ennusteet.

Kartan vaihtaminen: klikkaa mustalla rastilla varustettuja vihreitä pisteitä, niin voit zoomata sisään; viivalla varustettua vihreää pistettä, niin voit zoomata ulos tai vihreitä nuolia, niin pääset viereisille kartoille.


METAR-TAF: